sensor_id;sensor_type;location;lat;lon;timestamp;P1;durP1;ratioP1;P2;durP2;ratioP2
17595;SDS011;8916;47.086;15.920;2022-11-11T00:00:58;22.63;;;16.02;;
17595;SDS011;8916;47.086;15.920;2022-11-11T00:03:47;23.10;;;16.70;;
17595;SDS011;8916;47.086;15.920;2022-11-11T00:06:35;23.92;;;17.48;;
17595;SDS011;8916;47.086;15.920;2022-11-11T00:09:22;22.45;;;16.27;;
17595;SDS011;8916;47.086;15.920;2022-11-11T00:12:10;19.92;;;15.00;;
17595;SDS011;8916;47.086;15.920;2022-11-11T00:14:59;24.00;;;16.75;;
17595;SDS011;8916;47.086;15.920;2022-11-11T00:17:46;20.77;;;16.52;;
17595;SDS011;8916;47.086;15.920;2022-11-11T00:20:52;22.63;;;17.10;;
17595;SDS011;8916;47.086;15.920;2022-11-11T00:24:12;23.85;;;17.60;;
17595;SDS011;8916;47.086;15.920;2022-11-11T00:27:25;19.70;;;14.15;;
17595;SDS011;8916;47.086;15.920;2022-11-11T00:33:01;19.65;;;15.27;;
17595;SDS011;8916;47.086;15.920;2022-11-11T00:35:52;17.98;;;13.93;;
17595;SDS011;8916;47.086;15.920;2022-11-11T00:38:40;19.20;;;13.90;;
17595;SDS011;8916;47.086;15.920;2022-11-11T00:41:31;18.45;;;12.73;;
17595;SDS011;8916;47.086;15.920;2022-11-11T00:44:19;17.17;;;11.93;;
17595;SDS011;8916;47.086;15.920;2022-11-11T00:47:08;16.30;;;10.93;;
17595;SDS011;8916;47.086;15.920;2022-11-11T00:50:14;15.77;;;11.40;;
17595;SDS011;8916;47.086;15.920;2022-11-11T00:53:23;18.27;;;11.90;;
17595;SDS011;8916;47.086;15.920;2022-11-11T00:56:13;16.95;;;11.90;;
17595;SDS011;8916;47.086;15.920;2022-11-11T00:59:01;18.77;;;11.88;;
17595;SDS011;8916;47.086;15.920;2022-11-11T01:01:49;16.77;;;12.15;;
17595;SDS011;8916;47.086;15.920;2022-11-11T01:04:38;19.08;;;13.25;;
17595;SDS011;8916;47.086;15.920;2022-11-11T01:07:26;19.58;;;13.57;;
17595;SDS011;8916;47.086;15.920;2022-11-11T01:10:13;20.30;;;12.85;;
17595;SDS011;8916;47.086;15.920;2022-11-11T01:13:22;15.57;;;11.63;;
17595;SDS011;8916;47.086;15.920;2022-11-11T01:16:13;21.52;;;13.68;;
17595;SDS011;8916;47.086;15.920;2022-11-11T01:19:03;20.45;;;13.52;;
17595;SDS011;8916;47.086;15.920;2022-11-11T01:21:52;22.20;;;13.77;;
17595;SDS011;8916;47.086;15.920;2022-11-11T01:24:40;21.30;;;13.88;;
17595;SDS011;8916;47.086;15.920;2022-11-11T01:27:27;19.42;;;13.48;;
17595;SDS011;8916;47.086;15.920;2022-11-11T01:30:15;21.95;;;14.57;;
17595;SDS011;8916;47.086;15.920;2022-11-11T01:33:03;18.77;;;12.98;;
17595;SDS011;8916;47.086;15.920;2022-11-11T01:38:40;18.60;;;12.20;;
17595;SDS011;8916;47.086;15.920;2022-11-11T01:41:29;17.98;;;12.27;;
17595;SDS011;8916;47.086;15.920;2022-11-11T01:44:37;22.88;;;13.93;;
17595;SDS011;8916;47.086;15.920;2022-11-11T01:47:29;20.38;;;13.75;;
17595;SDS011;8916;47.086;15.920;2022-11-11T01:50:59;17.42;;;11.63;;
17595;SDS011;8916;47.086;15.920;2022-11-11T01:53:50;21.60;;;14.25;;
17595;SDS011;8916;47.086;15.920;2022-11-11T01:56:45;17.67;;;12.00;;
17595;SDS011;8916;47.086;15.920;2022-11-11T01:59:36;20.60;;;14.32;;
17595;SDS011;8916;47.086;15.920;2022-11-11T02:02:29;22.02;;;12.32;;
17595;SDS011;8916;47.086;15.920;2022-11-11T02:05:25;21.17;;;12.40;;
17595;SDS011;8916;47.086;15.920;2022-11-11T02:08:30;25.38;;;14.27;;
17595;SDS011;8916;47.086;15.920;2022-11-11T02:11:22;21.23;;;13.63;;
17595;SDS011;8916;47.086;15.920;2022-11-11T02:14:29;23.48;;;15.50;;
17595;SDS011;8916;47.086;15.920;2022-11-11T02:17:26;20.70;;;14.13;;
17595;SDS011;8916;47.086;15.920;2022-11-11T02:20:18;23.60;;;13.88;;
17595;SDS011;8916;47.086;15.920;2022-11-11T02:23:10;19.08;;;14.07;;
17595;SDS011;8916;47.086;15.920;2022-11-11T02:26:03;26.45;;;16.10;;
17595;SDS011;8916;47.086;15.920;2022-11-11T02:28:52;26.02;;;15.73;;
17595;SDS011;8916;47.086;15.920;2022-11-11T02:31:41;26.17;;;16.38;;
17595;SDS011;8916;47.086;15.920;2022-11-11T02:34:29;25.13;;;16.08;;
17595;SDS011;8916;47.086;15.920;2022-11-11T02:37:20;22.90;;;14.52;;
17595;SDS011;8916;47.086;15.920;2022-11-11T02:40:10;23.17;;;15.27;;
17595;SDS011;8916;47.086;15.920;2022-11-11T02:43:04;19.13;;;13.10;;
17595;SDS011;8916;47.086;15.920;2022-11-11T02:45:52;18.05;;;12.45;;
17595;SDS011;8916;47.086;15.920;2022-11-11T02:51:27;15.20;;;10.05;;
17595;SDS011;8916;47.086;15.920;2022-11-11T02:54:15;13.55;;;9.32;;
17595;SDS011;8916;47.086;15.920;2022-11-11T02:57:02;16.58;;;11.25;;
17595;SDS011;8916;47.086;15.920;2022-11-11T02:59:54;14.63;;;9.48;;
17595;SDS011;8916;47.086;15.920;2022-11-11T03:02:45;25.70;;;10.48;;
17595;SDS011;8916;47.086;15.920;2022-11-11T03:05:33;16.88;;;11.68;;
17595;SDS011;8916;47.086;15.920;2022-11-11T03:08:21;18.88;;;11.85;;
17595;SDS011;8916;47.086;15.920;2022-11-11T03:11:09;17.58;;;11.20;;
17595;SDS011;8916;47.086;15.920;2022-11-11T03:13:57;13.30;;;10.40;;
17595;SDS011;8916;47.086;15.920;2022-11-11T03:16:47;15.95;;;10.73;;
17595;SDS011;8916;47.086;15.920;2022-11-11T03:19:53;18.42;;;11.88;;
17595;SDS011;8916;47.086;15.920;2022-11-11T03:23:02;20.17;;;12.88;;
17595;SDS011;8916;47.086;15.920;2022-11-11T03:25:52;16.70;;;11.30;;
17595;SDS011;8916;47.086;15.920;2022-11-11T03:28:42;20.73;;;12.90;;
17595;SDS011;8916;47.086;15.920;2022-11-11T03:31:30;21.38;;;11.65;;
17595;SDS011;8916;47.086;15.920;2022-11-11T03:34:19;16.27;;;10.30;;
17595;SDS011;8916;47.086;15.920;2022-11-11T03:37:09;15.70;;;9.55;;
17595;SDS011;8916;47.086;15.920;2022-11-11T03:40:15;16.10;;;9.20;;
17595;SDS011;8916;47.086;15.920;2022-11-11T03:43:03;11.02;;;7.60;;
17595;SDS011;8916;47.086;15.920;2022-11-11T03:45:50;11.55;;;8.02;;
17595;SDS011;8916;47.086;15.920;2022-11-11T03:48:39;13.27;;;8.52;;
17595;SDS011;8916;47.086;15.920;2022-11-11T03:51:28;12.07;;;9.18;;
17595;SDS011;8916;47.086;15.920;2022-11-11T03:54:16;12.00;;;8.90;;
17595;SDS011;8916;47.086;15.920;2022-11-11T03:57:04;12.55;;;8.77;;
17595;SDS011;8916;47.086;15.920;2022-11-11T04:00:09;14.85;;;10.27;;
17595;SDS011;8916;47.086;15.920;2022-11-11T04:03:00;15.98;;;10.73;;
17595;SDS011;8916;47.086;15.920;2022-11-11T04:06:11;18.38;;;10.70;;
17595;SDS011;8916;47.086;15.920;2022-11-11T04:09:18;17.80;;;10.98;;
17595;SDS011;8916;47.086;15.920;2022-11-11T04:12:23;19.95;;;11.75;;
17595;SDS011;8916;47.086;15.920;2022-11-11T04:15:12;14.60;;;10.00;;
17595;SDS011;8916;47.086;15.920;2022-11-11T04:18:36;17.25;;;9.98;;
17595;SDS011;8916;47.086;15.920;2022-11-11T04:21:41;17.77;;;11.50;;
17595;SDS011;8916;47.086;15.920;2022-11-11T04:24:34;14.45;;;10.07;;
17595;SDS011;8916;47.086;15.920;2022-11-11T04:27:40;11.48;;;9.02;;
17595;SDS011;8916;47.086;15.920;2022-11-11T04:30:27;13.65;;;10.00;;
17595;SDS011;8916;47.086;15.920;2022-11-11T04:33:15;16.10;;;10.50;;
17595;SDS011;8916;47.086;15.920;2022-11-11T04:36:03;14.35;;;9.88;;
17595;SDS011;8916;47.086;15.920;2022-11-11T04:38:51;14.57;;;10.18;;
17595;SDS011;8916;47.086;15.920;2022-11-11T04:41:57;14.27;;;9.93;;
17595;SDS011;8916;47.086;15.920;2022-11-11T04:44:53;15.77;;;8.85;;
17595;SDS011;8916;47.086;15.920;2022-11-11T04:48:00;14.55;;;9.32;;
17595;SDS011;8916;47.086;15.920;2022-11-11T04:50:50;11.73;;;8.32;;
17595;SDS011;8916;47.086;15.920;2022-11-11T04:53:39;11.52;;;6.93;;
17595;SDS011;8916;47.086;15.920;2022-11-11T04:56:26;12.32;;;8.82;;
17595;SDS011;8916;47.086;15.920;2022-11-11T04:59:32;11.57;;;7.53;;
17595;SDS011;8916;47.086;15.920;2022-11-11T05:02:20;13.32;;;7.35;;
17595;SDS011;8916;47.086;15.920;2022-11-11T05:05:25;15.43;;;10.27;;
17595;SDS011;8916;47.086;15.920;2022-11-11T05:08:35;18.15;;;10.40;;
17595;SDS011;8916;47.086;15.920;2022-11-11T05:11:42;15.65;;;9.57;;
17595;SDS011;8916;47.086;15.920;2022-11-11T05:14:32;21.58;;;12.23;;
17595;SDS011;8916;47.086;15.920;2022-11-11T05:17:38;18.05;;;11.93;;
17595;SDS011;8916;47.086;15.920;2022-11-11T05:20:46;14.48;;;9.65;;
17595;SDS011;8916;47.086;15.920;2022-11-11T05:23:53;14.30;;;9.77;;
17595;SDS011;8916;47.086;15.920;2022-11-11T05:26:58;20.23;;;9.98;;
17595;SDS011;8916;47.086;15.920;2022-11-11T05:29:47;14.48;;;8.27;;
17595;SDS011;8916;47.086;15.920;2022-11-11T05:32:34;14.10;;;9.20;;
17595;SDS011;8916;47.086;15.920;2022-11-11T05:35:23;11.63;;;7.30;;
17595;SDS011;8916;47.086;15.920;2022-11-11T05:38:11;12.02;;;7.63;;
17595;SDS011;8916;47.086;15.920;2022-11-11T05:41:15;15.02;;;8.52;;
17595;SDS011;8916;47.086;15.920;2022-11-11T05:44:03;16.45;;;9.70;;
17595;SDS011;8916;47.086;15.920;2022-11-11T05:46:52;16.05;;;9.38;;
17595;SDS011;8916;47.086;15.920;2022-11-11T05:49:40;18.15;;;9.35;;
17595;SDS011;8916;47.086;15.920;2022-11-11T05:52:28;17.00;;;9.15;;
17595;SDS011;8916;47.086;15.920;2022-11-11T05:55:16;17.33;;;8.50;;
17595;SDS011;8916;47.086;15.920;2022-11-11T05:58:04;17.85;;;10.05;;
17595;SDS011;8916;47.086;15.920;2022-11-11T06:00:51;19.73;;;10.20;;
17595;SDS011;8916;47.086;15.920;2022-11-11T06:03:41;16.92;;;10.75;;
17595;SDS011;8916;47.086;15.920;2022-11-11T06:06:29;19.42;;;9.95;;
17595;SDS011;8916;47.086;15.920;2022-11-11T06:09:18;14.52;;;9.50;;
17595;SDS011;8916;47.086;15.920;2022-11-11T06:12:06;14.23;;;8.38;;
17595;SDS011;8916;47.086;15.920;2022-11-11T06:14:54;13.82;;;7.85;;
17595;SDS011;8916;47.086;15.920;2022-11-11T06:17:41;13.93;;;7.82;;
17595;SDS011;8916;47.086;15.920;2022-11-11T06:20:30;18.10;;;9.40;;
17595;SDS011;8916;47.086;15.920;2022-11-11T06:23:20;15.50;;;8.13;;
17595;SDS011;8916;47.086;15.920;2022-11-11T06:26:09;19.63;;;8.52;;
17595;SDS011;8916;47.086;15.920;2022-11-11T06:28:58;17.45;;;9.75;;
17595;SDS011;8916;47.086;15.920;2022-11-11T06:31:47;18.30;;;9.30;;
17595;SDS011;8916;47.086;15.920;2022-11-11T06:37:23;20.15;;;9.93;;
17595;SDS011;8916;47.086;15.920;2022-11-11T06:40:13;20.70;;;10.57;;
17595;SDS011;8916;47.086;15.920;2022-11-11T06:43:07;17.83;;;10.32;;
17595;SDS011;8916;47.086;15.920;2022-11-11T06:45:56;18.60;;;10.93;;
17595;SDS011;8916;47.086;15.920;2022-11-11T06:51:31;16.35;;;8.95;;
17595;SDS011;8916;47.086;15.920;2022-11-11T06:54:20;22.15;;;9.10;;
17595;SDS011;8916;47.086;15.920;2022-11-11T06:57:08;14.73;;;9.05;;
17595;SDS011;8916;47.086;15.920;2022-11-11T06:59:56;15.35;;;10.35;;
17595;SDS011;8916;47.086;15.920;2022-11-11T07:02:44;23.50;;;10.65;;
17595;SDS011;8916;47.086;15.920;2022-11-11T07:05:32;18.80;;;11.48;;
17595;SDS011;8916;47.086;15.920;2022-11-11T07:08:20;20.58;;;11.95;;
17595;SDS011;8916;47.086;15.920;2022-11-11T07:11:10;22.80;;;12.35;;
17595;SDS011;8916;47.086;15.920;2022-11-11T07:14:04;21.98;;;11.95;;
17595;SDS011;8916;47.086;15.920;2022-11-11T07:16:51;16.10;;;10.77;;
17595;SDS011;8916;47.086;15.920;2022-11-11T07:19:39;16.85;;;10.13;;
17595;SDS011;8916;47.086;15.920;2022-11-11T07:22:27;18.67;;;10.02;;
17595;SDS011;8916;47.086;15.920;2022-11-11T07:25:21;14.57;;;9.52;;
17595;SDS011;8916;47.086;15.920;2022-11-11T07:28:10;14.68;;;9.23;;
17595;SDS011;8916;47.086;15.920;2022-11-11T07:30:58;14.70;;;9.38;;
17595;SDS011;8916;47.086;15.920;2022-11-11T07:33:45;17.33;;;9.40;;
17595;SDS011;8916;47.086;15.920;2022-11-11T07:36:33;12.80;;;9.35;;
17595;SDS011;8916;47.086;15.920;2022-11-11T07:39:21;15.25;;;9.27;;
17595;SDS011;8916;47.086;15.920;2022-11-11T07:42:08;11.80;;;8.45;;
17595;SDS011;8916;47.086;15.920;2022-11-11T07:45:16;16.90;;;9.13;;
17595;SDS011;8916;47.086;15.920;2022-11-11T07:48:05;15.52;;;9.27;;
17595;SDS011;8916;47.086;15.920;2022-11-11T07:53:40;15.75;;;8.90;;
17595;SDS011;8916;47.086;15.920;2022-11-11T07:56:28;13.65;;;8.93;;
17595;SDS011;8916;47.086;15.920;2022-11-11T07:59:16;10.98;;;7.88;;
17595;SDS011;8916;47.086;15.920;2022-11-11T08:02:04;11.15;;;6.95;;
17595;SDS011;8916;47.086;15.920;2022-11-11T08:04:52;15.50;;;8.23;;
17595;SDS011;8916;47.086;15.920;2022-11-11T08:07:41;16.65;;;9.20;;
17595;SDS011;8916;47.086;15.920;2022-11-11T08:10:29;13.77;;;9.18;;
17595;SDS011;8916;47.086;15.920;2022-11-11T08:13:17;18.48;;;8.90;;
17595;SDS011;8916;47.086;15.920;2022-11-11T08:16:22;15.85;;;9.32;;
17595;SDS011;8916;47.086;15.920;2022-11-11T08:19:11;19.60;;;9.32;;
17595;SDS011;8916;47.086;15.920;2022-11-11T08:21:59;17.42;;;8.15;;
17595;SDS011;8916;47.086;15.920;2022-11-11T08:24:46;17.77;;;7.93;;
17595;SDS011;8916;47.086;15.920;2022-11-11T08:27:55;12.35;;;7.47;;
17595;SDS011;8916;47.086;15.920;2022-11-11T08:30:43;12.07;;;7.85;;
17595;SDS011;8916;47.086;15.920;2022-11-11T08:33:33;14.93;;;8.25;;
17595;SDS011;8916;47.086;15.920;2022-11-11T08:36:22;13.05;;;7.70;;
17595;SDS011;8916;47.086;15.920;2022-11-11T08:39:11;12.25;;;7.82;;
17595;SDS011;8916;47.086;15.920;2022-11-11T08:41:58;14.43;;;7.78;;
17595;SDS011;8916;47.086;15.920;2022-11-11T08:44:45;11.77;;;6.57;;
17595;SDS011;8916;47.086;15.920;2022-11-11T08:47:33;8.15;;;6.60;;
17595;SDS011;8916;47.086;15.920;2022-11-11T08:50:21;11.30;;;6.30;;
17595;SDS011;8916;47.086;15.920;2022-11-11T08:53:10;13.10;;;6.38;;
17595;SDS011;8916;47.086;15.920;2022-11-11T08:55:59;8.63;;;5.68;;
17595;SDS011;8916;47.086;15.920;2022-11-11T08:58:48;11.15;;;5.60;;
17595;SDS011;8916;47.086;15.920;2022-11-11T09:01:36;9.00;;;5.90;;
17595;SDS011;8916;47.086;15.920;2022-11-11T09:04:24;8.73;;;5.70;;
17595;SDS011;8916;47.086;15.920;2022-11-11T09:07:29;14.00;;;6.55;;
17595;SDS011;8916;47.086;15.920;2022-11-11T09:10:18;9.63;;;6.40;;
17595;SDS011;8916;47.086;15.920;2022-11-11T09:13:06;10.77;;;5.90;;
17595;SDS011;8916;47.086;15.920;2022-11-11T09:15:53;10.45;;;4.97;;
17595;SDS011;8916;47.086;15.920;2022-11-11T09:18:41;9.82;;;5.05;;
17595;SDS011;8916;47.086;15.920;2022-11-11T09:21:29;12.13;;;5.45;;
17595;SDS011;8916;47.086;15.920;2022-11-11T09:27:11;10.60;;;4.25;;
17595;SDS011;8916;47.086;15.920;2022-11-11T09:29:59;6.78;;;4.18;;
17595;SDS011;8916;47.086;15.920;2022-11-11T09:32:48;8.48;;;4.30;;
17595;SDS011;8916;47.086;15.920;2022-11-11T09:35:35;5.55;;;4.00;;
17595;SDS011;8916;47.086;15.920;2022-11-11T09:41:21;7.85;;;4.40;;
17595;SDS011;8916;47.086;15.920;2022-11-11T09:48:33;6.00;;;4.00;;
17595;SDS011;8916;47.086;15.920;2022-11-11T09:51:38;4.38;;;3.47;;
17595;SDS011;8916;47.086;15.920;2022-11-11T09:54:34;10.27;;;4.40;;
17595;SDS011;8916;47.086;15.920;2022-11-11T09:57:28;7.07;;;4.10;;
17595;SDS011;8916;47.086;15.920;2022-11-11T10:00:23;6.32;;;3.55;;
17595;SDS011;8916;47.086;15.920;2022-11-11T10:03:15;6.35;;;3.55;;
17595;SDS011;8916;47.086;15.920;2022-11-11T10:06:08;5.95;;;3.78;;
17595;SDS011;8916;47.086;15.920;2022-11-11T10:09:12;5.15;;;3.60;;
17595;SDS011;8916;47.086;15.920;2022-11-11T10:12:07;5.90;;;3.70;;
17595;SDS011;8916;47.086;15.920;2022-11-11T10:14:58;6.95;;;3.70;;
17595;SDS011;8916;47.086;15.920;2022-11-11T10:17:53;6.75;;;3.10;;
17595;SDS011;8916;47.086;15.920;2022-11-11T10:21:10;4.35;;;2.95;;
17595;SDS011;8916;47.086;15.920;2022-11-11T10:24:01;4.72;;;3.00;;
17595;SDS011;8916;47.086;15.920;2022-11-11T10:26:58;7.28;;;3.30;;
17595;SDS011;8916;47.086;15.920;2022-11-11T10:29:51;5.93;;;3.13;;
17595;SDS011;8916;47.086;15.920;2022-11-11T10:32:38;5.07;;;3.00;;
17595;SDS011;8916;47.086;15.920;2022-11-11T10:35:28;6.05;;;3.60;;
17595;SDS011;8916;47.086;15.920;2022-11-11T10:38:22;10.43;;;4.40;;
17595;SDS011;8916;47.086;15.920;2022-11-11T10:41:22;5.72;;;3.30;;
17595;SDS011;8916;47.086;15.920;2022-11-11T10:44:24;7.18;;;3.70;;
17595;SDS011;8916;47.086;15.920;2022-11-11T10:47:15;6.28;;;3.65;;
17595;SDS011;8916;47.086;15.920;2022-11-11T10:50:15;10.68;;;4.22;;
17595;SDS011;8916;47.086;15.920;2022-11-11T10:53:10;8.38;;;3.88;;
17595;SDS011;8916;47.086;15.920;2022-11-11T10:56:05;10.23;;;3.85;;
17595;SDS011;8916;47.086;15.920;2022-11-11T10:59:06;5.75;;;3.28;;
17595;SDS011;8916;47.086;15.920;2022-11-11T11:02:04;7.40;;;4.00;;
17595;SDS011;8916;47.086;15.920;2022-11-11T11:05:00;5.60;;;3.90;;
17595;SDS011;8916;47.086;15.920;2022-11-11T11:07:54;7.93;;;3.72;;
17595;SDS011;8916;47.086;15.920;2022-11-11T11:10:46;6.13;;;3.45;;
17595;SDS011;8916;47.086;15.920;2022-11-11T11:13:41;8.38;;;3.20;;
17595;SDS011;8916;47.086;15.920;2022-11-11T11:16:35;5.80;;;3.20;;
17595;SDS011;8916;47.086;15.920;2022-11-11T11:19:28;7.38;;;3.67;;
17595;SDS011;8916;47.086;15.920;2022-11-11T11:22:16;5.32;;;3.22;;
17595;SDS011;8916;47.086;15.920;2022-11-11T11:25:10;5.30;;;3.20;;
17595;SDS011;8916;47.086;15.920;2022-11-11T11:28:07;6.32;;;3.20;;
17595;SDS011;8916;47.086;15.920;2022-11-11T11:31:01;8.15;;;4.05;;
17595;SDS011;8916;47.086;15.920;2022-11-11T11:33:52;10.52;;;3.80;;
17595;SDS011;8916;47.086;15.920;2022-11-11T11:36:41;4.75;;;3.35;;
17595;SDS011;8916;47.086;15.920;2022-11-11T11:39:33;8.85;;;3.97;;
17595;SDS011;8916;47.086;15.920;2022-11-11T11:42:28;6.32;;;3.67;;
17595;SDS011;8916;47.086;15.920;2022-11-11T11:45:22;5.35;;;3.63;;
17595;SDS011;8916;47.086;15.920;2022-11-11T11:48:18;6.70;;;4.13;;
17595;SDS011;8916;47.086;15.920;2022-11-11T11:51:21;7.50;;;3.72;;
17595;SDS011;8916;47.086;15.920;2022-11-11T11:54:30;6.53;;;3.28;;
17595;SDS011;8916;47.086;15.920;2022-11-11T11:57:40;6.10;;;3.50;;
17595;SDS011;8916;47.086;15.920;2022-11-11T12:00:42;7.40;;;3.15;;
17595;SDS011;8916;47.086;15.920;2022-11-11T12:07:37;7.05;;;3.30;;
17595;SDS011;8916;47.086;15.920;2022-11-11T12:10:41;7.53;;;3.58;;
17595;SDS011;8916;47.086;15.920;2022-11-11T12:13:37;7.90;;;3.65;;
17595;SDS011;8916;47.086;15.920;2022-11-11T12:16:34;6.53;;;3.85;;
17595;SDS011;8916;47.086;15.920;2022-11-11T12:19:36;8.18;;;4.07;;
17595;SDS011;8916;47.086;15.920;2022-11-11T12:22:46;6.07;;;4.05;;
17595;SDS011;8916;47.086;15.920;2022-11-11T12:25:59;9.20;;;4.07;;
17595;SDS011;8916;47.086;15.920;2022-11-11T12:29:01;6.05;;;3.88;;
17595;SDS011;8916;47.086;15.920;2022-11-11T12:32:15;7.20;;;3.97;;
17595;SDS011;8916;47.086;15.920;2022-11-11T12:35:24;7.28;;;4.20;;
17595;SDS011;8916;47.086;15.920;2022-11-11T12:38:42;6.82;;;3.90;;
17595;SDS011;8916;47.086;15.920;2022-11-11T12:41:45;9.50;;;4.32;;
17595;SDS011;8916;47.086;15.920;2022-11-11T12:44:48;8.15;;;4.38;;
17595;SDS011;8916;47.086;15.920;2022-11-11T12:47:47;9.25;;;4.10;;
17595;SDS011;8916;47.086;15.920;2022-11-11T12:50:50;7.82;;;4.47;;
17595;SDS011;8916;47.086;15.920;2022-11-11T12:53:51;7.85;;;3.83;;
17595;SDS011;8916;47.086;15.920;2022-11-11T12:56:52;7.97;;;4.43;;
17595;SDS011;8916;47.086;15.920;2022-11-11T13:00:00;8.20;;;3.83;;
17595;SDS011;8916;47.086;15.920;2022-11-11T13:09:50;12.88;;;4.50;;
17595;SDS011;8916;47.086;15.920;2022-11-11T13:15:57;7.95;;;4.32;;
17595;SDS011;8916;47.086;15.920;2022-11-11T13:18:47;7.75;;;4.20;;
17595;SDS011;8916;47.086;15.920;2022-11-11T13:21:41;9.88;;;4.18;;
17595;SDS011;8916;47.086;15.920;2022-11-11T13:24:41;7.60;;;3.85;;
17595;SDS011;8916;47.086;15.920;2022-11-11T13:27:35;12.77;;;4.72;;
17595;SDS011;8916;47.086;15.920;2022-11-11T13:33:40;10.30;;;4.20;;
17595;SDS011;8916;47.086;15.920;2022-11-11T13:39:29;7.55;;;4.30;;
17595;SDS011;8916;47.086;15.920;2022-11-11T13:42:22;7.85;;;3.90;;
17595;SDS011;8916;47.086;15.920;2022-11-11T13:45:18;9.73;;;4.40;;
17595;SDS011;8916;47.086;15.920;2022-11-11T13:48:27;7.53;;;4.43;;
17595;SDS011;8916;47.086;15.920;2022-11-11T13:51:21;10.43;;;5.07;;
17595;SDS011;8916;47.086;15.920;2022-11-11T13:54:22;10.50;;;4.97;;
17595;SDS011;8916;47.086;15.920;2022-11-11T13:57:17;11.20;;;5.03;;
17595;SDS011;8916;47.086;15.920;2022-11-11T14:00:24;8.05;;;4.03;;
17595;SDS011;8916;47.086;15.920;2022-11-11T14:06:52;7.18;;;4.10;;
17595;SDS011;8916;47.086;15.920;2022-11-11T14:12:54;9.63;;;4.43;;
17595;SDS011;8916;47.086;15.920;2022-11-11T14:15:44;8.23;;;4.70;;
17595;SDS011;8916;47.086;15.920;2022-11-11T14:18:38;7.13;;;3.90;;
17595;SDS011;8916;47.086;15.920;2022-11-11T14:21:41;8.88;;;4.35;;
17595;SDS011;8916;47.086;15.920;2022-11-11T14:24:38;6.72;;;4.47;;
17595;SDS011;8916;47.086;15.920;2022-11-11T14:27:29;7.68;;;4.63;;
17595;SDS011;8916;47.086;15.920;2022-11-11T17:36:39;18.02;;;10.15;;
17595;SDS011;8916;47.086;15.920;2022-11-11T17:39:26;20.85;;;10.57;;
17595;SDS011;8916;47.086;15.920;2022-11-11T17:42:14;15.65;;;9.90;;
17595;SDS011;8916;47.086;15.920;2022-11-11T17:45:02;21.50;;;13.60;;
17595;SDS011;8916;47.086;15.920;2022-11-11T17:47:53;20.45;;;13.13;;
17595;SDS011;8916;47.086;15.920;2022-11-11T17:50:41;19.40;;;13.65;;
17595;SDS011;8916;47.086;15.920;2022-11-11T17:53:31;19.77;;;12.95;;
17595;SDS011;8916;47.086;15.920;2022-11-11T17:56:21;31.95;;;18.95;;
17595;SDS011;8916;47.086;15.920;2022-11-11T17:59:11;43.60;;;23.88;;
17595;SDS011;8916;47.086;15.920;2022-11-11T18:02:00;39.20;;;19.90;;
17595;SDS011;8916;47.086;15.920;2022-11-11T18:04:48;33.30;;;19.77;;
17595;SDS011;8916;47.086;15.920;2022-11-11T18:10:31;29.48;;;18.40;;
17595;SDS011;8916;47.086;15.920;2022-11-11T18:13:19;27.67;;;17.55;;
17595;SDS011;8916;47.086;15.920;2022-11-11T18:16:12;25.38;;;15.27;;
17595;SDS011;8916;47.086;15.920;2022-11-11T18:19:02;26.45;;;14.65;;
17595;SDS011;8916;47.086;15.920;2022-11-11T18:21:53;23.40;;;11.77;;
17595;SDS011;8916;47.086;15.920;2022-11-11T18:24:40;14.80;;;8.77;;
17595;SDS011;8916;47.086;15.920;2022-11-11T18:27:37;31.33;;;8.57;;
17595;SDS011;8916;47.086;15.920;2022-11-11T18:30:25;18.90;;;9.95;;
17595;SDS011;8916;47.086;15.920;2022-11-11T18:36:04;20.73;;;10.30;;
17595;SDS011;8916;47.086;15.920;2022-11-11T18:38:54;19.30;;;11.00;;
17595;SDS011;8916;47.086;15.920;2022-11-11T18:41:42;36.38;;;14.95;;
17595;SDS011;8916;47.086;15.920;2022-11-11T18:44:32;55.33;;;20.48;;
17595;SDS011;8916;47.086;15.920;2022-11-11T18:47:20;72.15;;;24.17;;
17595;SDS011;8916;47.086;15.920;2022-11-11T18:50:07;53.10;;;23.42;;
17595;SDS011;8916;47.086;15.920;2022-11-11T18:52:55;36.53;;;20.80;;
17595;SDS011;8916;47.086;15.920;2022-11-11T18:55:42;38.20;;;21.13;;
17595;SDS011;8916;47.086;15.920;2022-11-11T18:58:30;38.08;;;21.60;;
17595;SDS011;8916;47.086;15.920;2022-11-11T19:01:21;45.70;;;19.13;;
17595;SDS011;8916;47.086;15.920;2022-11-11T19:04:11;49.85;;;20.88;;
17595;SDS011;8916;47.086;15.920;2022-11-11T19:06:59;49.65;;;17.85;;
17595;SDS011;8916;47.086;15.920;2022-11-11T19:09:48;69.28;;;21.17;;
17595;SDS011;8916;47.086;15.920;2022-11-11T19:12:35;48.15;;;18.75;;
17595;SDS011;8916;47.086;15.920;2022-11-11T19:15:23;74.88;;;25.95;;
17595;SDS011;8916;47.086;15.920;2022-11-11T19:18:12;54.88;;;25.85;;
17595;SDS011;8916;47.086;15.920;2022-11-11T19:21:04;64.53;;;25.50;;
17595;SDS011;8916;47.086;15.920;2022-11-11T19:23:54;84.25;;;30.85;;
17595;SDS011;8916;47.086;15.920;2022-11-11T19:26:43;60.40;;;27.70;;
17595;SDS011;8916;47.086;15.920;2022-11-11T19:29:32;55.83;;;26.85;;
17595;SDS011;8916;47.086;15.920;2022-11-11T19:32:20;50.58;;;26.75;;
17595;SDS011;8916;47.086;15.920;2022-11-11T19:35:09;44.35;;;25.35;;
17595;SDS011;8916;47.086;15.920;2022-11-11T19:37:56;48.55;;;23.73;;
17595;SDS011;8916;47.086;15.920;2022-11-11T19:43:32;39.13;;;21.85;;
17595;SDS011;8916;47.086;15.920;2022-11-11T19:49:08;16.60;;;10.27;;
17595;SDS011;8916;47.086;15.920;2022-11-11T19:51:57;25.45;;;15.55;;
17595;SDS011;8916;47.086;15.920;2022-11-11T19:54:45;34.58;;;19.77;;
17595;SDS011;8916;47.086;15.920;2022-11-11T19:57:32;33.15;;;20.98;;
17595;SDS011;8916;47.086;15.920;2022-11-11T20:00:21;38.70;;;20.73;;
17595;SDS011;8916;47.086;15.920;2022-11-11T20:03:11;55.58;;;28.15;;
17595;SDS011;8916;47.086;15.920;2022-11-11T20:05:59;50.10;;;25.95;;
17595;SDS011;8916;47.086;15.920;2022-11-11T20:11:39;45.00;;;24.90;;
17595;SDS011;8916;47.086;15.920;2022-11-11T20:14:28;38.40;;;24.40;;
17595;SDS011;8916;47.086;15.920;2022-11-11T20:22:54;44.15;;;24.58;;
17595;SDS011;8916;47.086;15.920;2022-11-11T20:25:48;42.97;;;22.52;;
17595;SDS011;8916;47.086;15.920;2022-11-11T20:28:39;37.90;;;20.42;;
17595;SDS011;8916;47.086;15.920;2022-11-11T20:31:27;32.30;;;19.20;;
17595;SDS011;8916;47.086;15.920;2022-11-11T20:37:03;24.20;;;14.25;;
17595;SDS011;8916;47.086;15.920;2022-11-11T20:39:50;22.25;;;13.18;;
17595;SDS011;8916;47.086;15.920;2022-11-11T20:42:40;22.92;;;14.13;;
17595;SDS011;8916;47.086;15.920;2022-11-11T20:45:28;24.65;;;14.63;;
17595;SDS011;8916;47.086;15.920;2022-11-11T20:48:16;29.85;;;18.38;;
17595;SDS011;8916;47.086;15.920;2022-11-11T20:51:04;28.38;;;18.60;;
17595;SDS011;8916;47.086;15.920;2022-11-11T20:53:55;36.17;;;22.00;;
17595;SDS011;8916;47.086;15.920;2022-11-11T20:56:44;33.42;;;21.15;;
17595;SDS011;8916;47.086;15.920;2022-11-11T20:59:35;29.88;;;19.88;;
17595;SDS011;8916;47.086;15.920;2022-11-11T21:02:22;34.25;;;19.85;;
17595;SDS011;8916;47.086;15.920;2022-11-11T21:05:10;28.50;;;17.17;;
17595;SDS011;8916;47.086;15.920;2022-11-11T21:08:01;36.83;;;19.67;;
17595;SDS011;8916;47.086;15.920;2022-11-11T21:10:48;22.83;;;14.63;;
17595;SDS011;8916;47.086;15.920;2022-11-11T21:13:40;17.27;;;11.93;;
17595;SDS011;8916;47.086;15.920;2022-11-11T21:16:31;24.02;;;13.15;;
17595;SDS011;8916;47.086;15.920;2022-11-11T21:19:20;20.65;;;13.07;;
17595;SDS011;8916;47.086;15.920;2022-11-11T21:22:07;25.02;;;14.43;;
17595;SDS011;8916;47.086;15.920;2022-11-11T21:24:55;27.55;;;16.35;;